createdAt,value
2019-03-22T00:01:17.278Z,99440.63
2019-03-22T00:03:49.170Z,99435.52
2019-03-22T00:06:20.751Z,99439.46
2019-03-22T00:08:51.687Z,99443.55
2019-03-22T00:11:23.281Z,99433.88
2019-03-22T00:13:54.539Z,99433.71
2019-03-22T00:16:25.683Z,99432.84
2019-03-22T00:18:56.929Z,99431.36
2019-03-22T00:21:27.755Z,99425.15
2019-03-22T00:23:57.963Z,99427.52
2019-03-22T00:26:27.985Z,99423.80
2019-03-22T00:28:58.098Z,99412.45
2019-03-22T00:31:28.077Z,99421.59
2019-03-22T00:33:58.114Z,99422.59
2019-03-22T00:36:28.215Z,99419.02
2019-03-22T00:38:58.120Z,99416.53
2019-03-22T00:41:28.062Z,99411.86
2019-03-22T00:43:57.961Z,99412.38
2019-03-22T00:46:27.889Z,99415.58
2019-03-22T00:48:57.812Z,99410.20
2019-03-22T00:51:27.941Z,99415.22
2019-03-22T00:53:57.941Z,99419.80
2019-03-22T00:56:28.177Z,99415.79
2019-03-22T00:58:58.329Z,99413.69
2019-03-22T01:01:28.387Z,99414.37
2019-03-22T01:03:58.352Z,99410.88
2019-03-22T01:06:28.538Z,99401.88
2019-03-22T01:08:58.773Z,99403.89
2019-03-22T01:11:28.695Z,99396.49
2019-03-22T01:13:58.709Z,99394.92
2019-03-22T01:16:28.737Z,99395.02
2019-03-22T01:18:58.652Z,99394.95
2019-03-22T01:21:28.673Z,99399.02
2019-03-22T01:23:59.930Z,99390.00
2019-03-22T01:26:30.156Z,99394.20
2019-03-22T01:29:00.240Z,99397.16
2019-03-22T01:31:30.252Z,99389.28
2019-03-22T01:34:00.411Z,99392.86
2019-03-22T01:36:30.388Z,99387.80
2019-03-22T01:39:00.354Z,99390.47
2019-03-22T01:41:30.281Z,99388.70
2019-03-22T01:44:00.347Z,99381.47
2019-03-22T01:46:30.561Z,99379.20
2019-03-22T01:49:00.580Z,99383.21
2019-03-22T01:51:30.920Z,99385.73
2019-03-22T01:54:01.026Z,99376.90
2019-03-22T01:56:30.983Z,99378.76
2019-03-22T01:59:01.040Z,99379.89
2019-03-22T02:01:30.988Z,99381.88
2019-03-22T02:04:01.061Z,99382.60
2019-03-22T02:06:31.118Z,99384.37
2019-03-22T02:09:01.140Z,99378.70
2019-03-22T02:11:31.255Z,99387.68
2019-03-22T02:14:01.422Z,99382.70
2019-03-22T02:16:31.393Z,99386.95
2019-03-22T02:19:01.425Z,99380.03
2019-03-22T02:21:31.583Z,99379.02
2019-03-22T02:24:01.764Z,99380.20
2019-03-22T02:26:31.668Z,99379.76
2019-03-22T02:29:01.602Z,99374.06
2019-03-22T02:31:31.603Z,99376.48
2019-03-22T02:34:01.548Z,99372.33
2019-03-22T02:36:31.631Z,99368.47
2019-03-22T02:39:01.583Z,99364.98
2019-03-22T02:41:31.493Z,99362.22
2019-03-22T02:44:01.405Z,99362.66
2019-03-22T02:46:31.620Z,99363.35
2019-03-22T02:49:01.539Z,99363.70
2019-03-22T02:51:31.555Z,99363.41
2019-03-22T02:54:01.454Z,99368.33
2019-03-22T02:56:31.609Z,99363.70
2019-03-22T02:59:01.692Z,99364.98
2019-03-22T03:01:31.909Z,99360.16
2019-03-22T03:04:01.935Z,99360.16
2019-03-22T03:06:32.039Z,99355.70
2019-03-22T03:09:01.961Z,99360.17
2019-03-22T03:11:32.066Z,99361.95
2019-03-22T03:14:02.227Z,99365.95
2019-03-22T03:16:32.145Z,99366.41
2019-03-22T03:19:02.124Z,99359.52
2019-03-22T03:21:32.054Z,99365.67
2019-03-22T03:24:02.023Z,99365.38
2019-03-22T03:26:31.988Z,99365.81
2019-03-22T03:29:01.897Z,99370.44
2019-03-22T03:31:31.925Z,99365.82
2019-03-22T03:34:01.939Z,99366.86
2019-03-22T03:36:34.786Z,99371.91
2019-03-22T03:39:03.898Z,99369.98
2019-03-22T03:41:33.850Z,99373.39
2019-03-22T03:44:03.961Z,99367.30
2019-03-22T03:46:33.896Z,99366.71
2019-03-22T03:49:03.843Z,99363.00
2019-03-22T03:51:33.926Z,99374.20
2019-03-22T03:54:04.050Z,99383.54
2019-03-22T03:56:34.195Z,99381.69
2019-03-22T03:59:04.258Z,99376.64
2019-03-22T04:01:34.204Z,99384.48
2019-03-22T04:04:04.113Z,99382.44
2019-03-22T04:06:34.268Z,99379.08
2019-03-22T04:09:05.621Z,99382.09
2019-03-22T04:11:35.534Z,99376.17
2019-03-22T04:14:05.916Z,99380.12
2019-03-22T04:16:36.067Z,99378.48
2019-03-22T04:19:06.181Z,99372.75
2019-03-22T04:21:36.166Z,99374.83
2019-03-22T04:24:06.219Z,99374.08
2019-03-22T04:26:36.225Z,99376.40
2019-03-22T04:29:08.121Z,99383.58
2019-03-22T04:31:38.075Z,99380.22
2019-03-22T04:34:08.015Z,99381.34
2019-03-22T04:36:37.929Z,99383.59
2019-03-22T04:39:09.068Z,99382.55
2019-03-22T04:41:39.045Z,99378.67
2019-03-22T04:44:09.118Z,99379.85
2019-03-22T04:46:41.045Z,99376.73
2019-03-22T04:49:12.676Z,99377.95
2019-03-22T04:51:42.963Z,99381.31
2019-03-22T04:54:15.130Z,99373.48
2019-03-22T04:56:46.855Z,99375.11
2019-03-22T04:59:19.448Z,99373.48
2019-03-22T05:01:52.748Z,99380.27
2019-03-22T05:04:25.292Z,99374.34
2019-03-22T05:06:56.620Z,99377.29
2019-03-22T05:09:30.095Z,99384.82
2019-03-22T05:12:03.259Z,99399.49
2019-03-22T05:14:36.470Z,99396.83
2019-03-22T05:17:08.491Z,99395.83
2019-03-22T05:19:41.482Z,99391.58
2019-03-22T05:22:13.641Z,99396.05
2019-03-22T05:24:46.374Z,99389.12
2019-03-22T05:27:17.678Z,99387.98
2019-03-22T05:29:49.235Z,99389.47
2019-03-22T05:32:19.717Z,99390.63
2019-03-22T05:34:49.825Z,99394.62
2019-03-22T05:37:19.832Z,99388.08
2019-03-22T05:39:49.777Z,99388.64
2019-03-22T05:42:19.846Z,99391.02
2019-03-22T05:44:49.867Z,99394.45
2019-03-22T05:47:19.871Z,99395.76
2019-03-22T05:49:49.928Z,99398.13
2019-03-22T05:52:19.952Z,99392.50
2019-03-22T05:54:49.878Z,99393.56
2019-03-22T05:57:19.881Z,99397.56
2019-03-22T05:59:49.861Z,99392.01
2019-03-22T06:02:19.808Z,99397.59
2019-03-22T06:04:49.727Z,99388.80
2019-03-22T06:07:19.775Z,99385.11
2019-03-22T06:09:49.932Z,99391.20
2019-03-22T06:12:19.945Z,99396.78
2019-03-22T06:14:50.002Z,99395.45
2019-03-22T06:17:28.104Z,99402.16
2019-03-22T06:19:58.333Z,99404.59
2019-03-22T06:22:28.315Z,99409.42
2019-03-22T06:24:58.350Z,99418.61
2019-03-22T06:27:28.438Z,99418.78
2019-03-22T06:29:58.382Z,99422.63
2019-03-22T06:32:28.397Z,99422.50
2019-03-22T06:34:58.502Z,99432.09
2019-03-22T06:37:28.417Z,99427.59
2019-03-22T06:39:58.357Z,99429.87
2019-03-22T06:42:28.322Z,99429.80
2019-03-22T06:44:58.281Z,99422.37
2019-03-22T06:47:28.512Z,99427.50
2019-03-22T06:49:58.586Z,99429.81
2019-03-22T06:52:28.667Z,99430.75
2019-03-22T06:54:58.647Z,99428.44
2019-03-22T06:57:28.683Z,99437.55
2019-03-22T07:00:06.461Z,99431.22
2019-03-22T07:02:30.644Z,99440.98
2019-03-22T07:05:00.599Z,99438.02
2019-03-22T07:07:30.515Z,99441.97
2019-03-22T07:10:00.561Z,99434.25
2019-03-22T07:12:30.461Z,99427.22
2019-03-22T07:15:00.909Z,99422.52
2019-03-22T07:17:31.387Z,99424.31
2019-03-22T07:20:01.287Z,99425.48
2019-03-22T07:22:31.345Z,99425.48
2019-03-22T07:25:01.330Z,99427.69
2019-03-22T07:27:31.362Z,99420.30
2019-03-22T07:30:01.548Z,99424.69
2019-03-22T07:32:31.522Z,99435.52
2019-03-22T07:35:01.614Z,99436.13
2019-03-22T07:37:31.563Z,99436.80
2019-03-22T07:40:01.670Z,99437.61
2019-03-22T07:42:31.999Z,99448.79
2019-03-22T07:45:02.417Z,99446.63
2019-03-22T07:47:32.436Z,99442.55
2019-03-22T07:50:02.500Z,99435.11
2019-03-22T07:52:32.420Z,99428.47
2019-03-22T07:55:02.432Z,99432.19
2019-03-22T07:57:33.504Z,99432.38
2019-03-22T08:00:03.530Z,99425.02
2019-03-22T08:02:33.731Z,99425.25
2019-03-22T08:05:03.889Z,99414.92
2019-03-22T08:07:33.895Z,99414.92
2019-03-22T08:10:04.565Z,99425.85
2019-03-22T08:12:34.518Z,99415.67
2019-03-22T08:15:04.834Z,99411.52
2019-03-22T08:17:34.923Z,99411.62
2019-03-22T08:20:05.573Z,99409.15
2019-03-22T08:22:35.499Z,99408.11
2019-03-22T08:25:05.827Z,99408.09
2019-03-22T08:27:35.801Z,99419.50
2019-03-22T08:30:06.900Z,99416.27
2019-03-22T08:32:36.939Z,99416.27
2019-03-22T08:35:06.911Z,99414.06
2019-03-22T08:37:36.926Z,99413.55
2019-03-22T08:40:07.442Z,99410.05
2019-03-22T08:42:37.449Z,99411.58
2019-03-22T08:45:07.534Z,99411.67
2019-03-22T08:47:37.449Z,99406.34
2019-03-22T08:50:08.234Z,99404.52
2019-03-22T08:52:38.200Z,99408.38
2019-03-22T08:55:08.811Z,99407.31
2019-03-22T08:57:38.694Z,99401.84
2019-03-22T09:00:09.913Z,99409.55
2019-03-22T09:02:40.070Z,99405.50
2019-03-22T09:05:09.955Z,99404.45
2019-03-22T09:07:40.000Z,99397.69
2019-03-22T09:10:11.128Z,99400.67
2019-03-22T09:12:41.102Z,99395.26
2019-03-22T09:15:11.795Z,99390.59
2019-03-22T09:17:41.993Z,99389.81
2019-03-22T09:20:12.573Z,99388.73
2019-03-22T09:22:42.596Z,99388.39
2019-03-22T09:25:12.660Z,99389.98
2019-03-22T09:27:42.670Z,99384.26
2019-03-22T09:30:14.340Z,99377.98
2019-03-22T09:32:44.417Z,99376.80
2019-03-22T09:35:14.393Z,99366.46
2019-03-22T09:37:44.277Z,99369.41
2019-03-22T09:40:14.744Z,99364.10
2019-03-22T09:42:44.649Z,99369.23
2019-03-22T09:45:14.789Z,99364.30
2019-03-22T09:47:44.747Z,99350.42
2019-03-22T09:50:15.748Z,99352.46
2019-03-22T09:52:45.834Z,99349.09
2019-03-22T09:55:15.716Z,99353.13
2019-03-22T09:57:45.731Z,99345.81
2019-03-22T10:00:28.295Z,99340.56
2019-03-22T10:02:58.387Z,99347.81
2019-03-22T10:05:28.365Z,99342.58
2019-03-22T10:07:58.384Z,99339.72
2019-03-22T10:10:28.968Z,99335.97
2019-03-22T10:12:59.278Z,99334.41
2019-03-22T10:15:29.243Z,99329.34
2019-03-22T10:17:59.221Z,99333.12
2019-03-22T10:20:29.219Z,99329.28
2019-03-22T10:22:59.239Z,99331.94
2019-03-22T10:25:29.163Z,99332.25
2019-03-22T10:27:59.156Z,99331.97
2019-03-22T10:30:29.461Z,99318.48
2019-03-22T10:33:00.355Z,99314.30
2019-03-22T10:35:30.337Z,99305.48
2019-03-22T10:38:01.216Z,99305.36
2019-03-22T10:40:33.172Z,99304.62
2019-03-22T10:43:03.170Z,99294.69
2019-03-22T10:45:33.292Z,99299.11
2019-03-22T10:48:03.279Z,99288.12
2019-03-22T10:50:33.234Z,99295.53
2019-03-22T10:53:03.227Z,99281.73
2019-03-22T10:55:35.566Z,99284.28
2019-03-22T10:58:19.887Z,99278.03
2019-03-22T11:00:37.074Z,99279.47
2019-03-22T11:03:06.984Z,99279.64
2019-03-22T11:05:37.126Z,99274.07
2019-03-22T11:08:07.045Z,99273.05
2019-03-22T11:10:37.132Z,99273.64
2019-03-22T11:13:07.279Z,99278.54
2019-03-22T11:15:37.266Z,99272.05
2019-03-22T11:18:07.431Z,99269.94
2019-03-22T11:20:37.390Z,99270.97
2019-03-22T11:23:07.422Z,99264.30
2019-03-22T11:25:37.738Z,99266.91
2019-03-22T11:28:07.675Z,99262.76
2019-03-22T11:30:37.599Z,99264.05
2019-03-22T11:33:07.787Z,99261.72
2019-03-22T11:35:37.940Z,99253.28
2019-03-22T11:38:07.962Z,99251.95
2019-03-22T11:40:37.897Z,99249.05
2019-03-22T11:43:08.798Z,99245.25
2019-03-22T11:45:39.141Z,99244.97
2019-03-22T11:48:09.138Z,99247.86
2019-03-22T11:50:39.128Z,99238.14
2019-03-22T11:53:09.795Z,99234.93
2019-03-22T11:55:40.465Z,99226.05
2019-03-22T11:58:11.044Z,99225.84
2019-03-22T12:00:41.524Z,99223.11
2019-03-22T12:03:12.265Z,99223.96
2019-03-22T12:05:42.799Z,99220.02
2019-03-22T12:08:13.383Z,99210.16
2019-03-22T12:10:44.831Z,99204.55
2019-03-22T12:13:15.490Z,99200.11
2019-03-22T12:15:45.970Z,99189.33
2019-03-22T12:18:16.574Z,99188.18
2019-03-22T12:20:47.256Z,99192.95
2019-03-22T12:23:18.021Z,99192.16
2019-03-22T12:25:48.713Z,99187.21
2019-03-22T12:28:19.243Z,99181.11
2019-03-22T12:30:49.958Z,99176.58
2019-03-22T12:33:20.416Z,99180.71
2019-03-22T12:35:51.389Z,99164.39
2019-03-22T12:38:21.872Z,99163.37
2019-03-22T12:40:52.493Z,99158.88
2019-03-22T12:43:23.263Z,99154.67
2019-03-22T12:45:53.781Z,99154.76
2019-03-22T12:48:23.795Z,99150.58
2019-03-22T12:50:53.717Z,99155.20
2019-03-22T12:53:23.688Z,99146.20
2019-03-22T12:55:54.137Z,99144.88
2019-03-22T12:58:24.060Z,99148.00
2019-03-22T13:00:54.026Z,99138.20
2019-03-22T13:03:24.463Z,99134.42
2019-03-22T13:05:54.959Z,99131.76
2019-03-22T13:08:24.875Z,99123.06
2019-03-22T13:10:55.221Z,99117.06
2019-03-22T13:13:25.316Z,99116.66
2019-03-22T13:15:55.581Z,99105.48
2019-03-22T13:18:25.650Z,99109.48
2019-03-22T13:20:55.873Z,99109.05
2019-03-22T13:23:25.805Z,99096.91
2019-03-22T13:25:55.731Z,99095.41
2019-03-22T13:28:25.839Z,99096.09
2019-03-22T13:30:55.931Z,99092.33
2019-03-22T13:33:25.992Z,99088.73
2019-03-22T13:35:55.892Z,99077.94
2019-03-22T13:38:25.929Z,99078.58
2019-03-22T13:40:55.853Z,99078.55
2019-03-22T13:43:25.776Z,99065.06
2019-03-22T13:45:55.690Z,99071.77
2019-03-22T13:48:25.803Z,99073.80
2019-03-22T13:50:55.903Z,99072.22
2019-03-22T13:53:25.850Z,99072.66
2019-03-22T13:55:55.932Z,99075.62
2019-03-22T13:58:25.860Z,99067.91
2019-03-22T14:00:55.981Z,99065.98
2019-03-22T14:03:26.276Z,99062.04
2019-03-22T14:05:56.262Z,99059.97
2019-03-22T14:08:27.106Z,99065.48
2019-03-22T14:10:57.032Z,99052.83
2019-03-22T14:13:27.047Z,99051.80
2019-03-22T14:15:56.986Z,99050.98
2019-03-22T14:18:27.012Z,99050.13
2019-03-22T14:20:57.026Z,99052.11
2019-03-22T14:23:27.103Z,99053.76
2019-03-22T14:25:57.170Z,99052.34
2019-03-22T14:28:27.260Z,99048.79
2019-03-22T14:30:57.230Z,99049.77
2019-03-22T14:33:27.221Z,99053.52
2019-03-22T14:35:57.250Z,99047.33
2019-03-22T14:38:27.627Z,99046.22
2019-03-22T14:40:57.701Z,99047.06
2019-03-22T14:43:27.764Z,99055.18
2019-03-22T14:45:57.836Z,99055.52
2019-03-22T14:48:28.130Z,99041.98
2019-03-22T14:50:58.057Z,99040.76
2019-03-22T14:53:28.135Z,99036.70
2019-03-22T14:55:58.266Z,99040.34
2019-03-22T14:58:28.221Z,99032.71
2019-03-22T15:00:58.330Z,99032.70
2019-03-22T15:03:28.737Z,99016.98
2019-03-22T15:05:58.782Z,99021.47
2019-03-22T15:08:29.300Z,99026.65
2019-03-22T15:10:59.294Z,99014.22
2019-03-22T15:13:38.492Z,99026.89
2019-03-22T15:16:36.642Z,99018.29
2019-03-22T15:19:28.828Z,99017.00
2019-03-22T15:22:16.634Z,99020.65
2019-03-22T15:25:04.144Z,99017.68
2019-03-22T15:28:08.195Z,99015.36
2019-03-22T15:31:09.303Z,99014.59
2019-03-22T15:34:00.963Z,99023.13
2019-03-22T15:36:45.687Z,99017.53
2019-03-22T15:39:30.427Z,99012.75
2019-03-22T15:42:00.602Z,99017.09
2019-03-22T15:44:30.530Z,99012.58
2019-03-22T15:47:00.509Z,99014.23
2019-03-22T15:49:30.454Z,99008.57
2019-03-22T15:52:00.547Z,99009.09
2019-03-22T15:54:30.708Z,99014.33
2019-03-22T15:57:00.630Z,99012.05
2019-03-22T15:59:30.645Z,99008.41
2019-03-22T16:02:00.813Z,99009.78
2019-03-22T16:04:30.929Z,99015.53
2019-03-22T16:07:01.067Z,99018.37
2019-03-22T16:09:31.204Z,99004.53
2019-03-22T16:12:01.263Z,99005.83
2019-03-22T16:14:31.228Z,98999.97
2019-03-22T16:17:01.373Z,99005.29
2019-03-22T16:19:31.449Z,99005.22
2019-03-22T16:22:01.602Z,98999.58
2019-03-22T16:24:31.531Z,99001.86
2019-03-22T16:27:01.862Z,99003.13
2019-03-22T16:29:31.904Z,98998.22
2019-03-22T16:32:01.848Z,98999.17
2019-03-22T16:34:31.967Z,99004.24
2019-03-22T16:37:01.953Z,98999.12
2019-03-22T16:39:31.905Z,99001.22
2019-03-22T16:42:02.223Z,98998.31
2019-03-22T16:44:32.479Z,98992.89
2019-03-22T16:47:02.480Z,99001.30
2019-03-22T16:49:32.632Z,98995.29
2019-03-22T16:52:02.587Z,98994.59
2019-03-22T16:54:32.729Z,98998.38
2019-03-22T16:57:02.714Z,99000.62
2019-03-22T16:59:32.651Z,99003.04
2019-03-22T17:02:03.113Z,99004.34
2019-03-22T17:04:33.319Z,98996.88
2019-03-22T17:07:03.324Z,98998.00
2019-03-22T17:09:33.279Z,99003.78
2019-03-22T17:12:03.239Z,98997.84
2019-03-22T17:14:33.143Z,99001.20
2019-03-22T17:17:03.103Z,98997.30
2019-03-22T17:19:33.027Z,98996.97
2019-03-22T17:22:03.131Z,99001.87
2019-03-22T17:24:33.478Z,98999.62
2019-03-22T17:27:03.670Z,99001.87
2019-03-22T17:29:33.611Z,99004.06
2019-03-22T17:32:03.611Z,99001.33
2019-03-22T17:34:33.651Z,99006.89
2019-03-22T17:37:03.760Z,99000.02
2019-03-22T17:39:33.852Z,99001.58
2019-03-22T17:42:03.999Z,99003.22
2019-03-22T17:44:34.188Z,99004.83
2019-03-22T17:47:06.692Z,99004.00
2019-03-22T17:49:36.811Z,99009.20
2019-03-22T17:52:06.749Z,99003.78
2019-03-22T17:54:36.747Z,99006.70
2019-03-22T17:57:06.818Z,99003.48
2019-03-22T17:59:36.760Z,99008.00
2019-03-22T18:02:06.788Z,99007.28
2019-03-22T18:04:36.733Z,99006.48
2019-03-22T18:07:06.625Z,99009.20
2019-03-22T18:09:36.656Z,99010.53
2019-03-22T18:12:06.761Z,99014.22
2019-03-22T18:14:36.814Z,99014.95
2019-03-22T18:17:06.775Z,99022.69
2019-03-22T18:19:36.740Z,99012.21
2019-03-22T18:22:06.785Z,99022.23
2019-03-22T18:24:36.858Z,99021.90
2019-03-22T18:27:06.908Z,99017.80
2019-03-22T18:29:36.994Z,99023.56
2019-03-22T18:32:07.167Z,99018.44
2019-03-22T18:34:37.620Z,99021.27
2019-03-22T18:37:07.665Z,99022.97
2019-03-22T18:39:37.768Z,99021.01
2019-03-22T18:42:07.827Z,99024.03
2019-03-22T18:44:37.907Z,99019.55
2019-03-22T18:47:07.944Z,99027.03
2019-03-22T18:49:37.945Z,99022.18
2019-03-22T18:52:08.348Z,99026.36
2019-03-22T18:54:38.540Z,99032.43
2019-03-22T18:57:08.440Z,99027.63
2019-03-22T18:59:38.555Z,99024.55
2019-03-22T19:02:08.552Z,99030.86
2019-03-22T19:04:44.008Z,99033.06
2019-03-22T19:07:10.670Z,99035.36
2019-03-22T19:09:40.760Z,99031.91
2019-03-22T19:12:10.677Z,99037.98
2019-03-22T19:14:40.723Z,99039.34
2019-03-22T19:17:10.720Z,99047.05
2019-03-22T19:19:40.651Z,99043.40
2019-03-22T19:22:10.666Z,99044.34
2019-03-22T19:24:40.841Z,99037.38
2019-03-22T19:27:10.784Z,99038.16
2019-03-22T19:29:40.783Z,99043.11
2019-03-22T19:32:13.829Z,99045.22
2019-03-22T19:34:42.705Z,99046.89
2019-03-22T19:37:13.400Z,99040.03
2019-03-22T19:39:43.537Z,99042.91
2019-03-22T19:42:13.468Z,99044.81
2019-03-22T19:44:43.612Z,99043.20
2019-03-22T19:47:13.640Z,99047.01
2019-03-22T19:49:43.582Z,99043.53
2019-03-22T19:52:13.709Z,99050.38
2019-03-22T19:54:43.866Z,99045.80
2019-03-22T19:57:13.867Z,99049.09
2019-03-22T19:59:43.791Z,99045.84
2019-03-22T20:02:13.708Z,99046.31
2019-03-22T20:04:43.717Z,99041.45
2019-03-22T20:07:13.825Z,99047.16
2019-03-22T20:09:44.222Z,99046.06
2019-03-22T20:12:14.192Z,99043.64
2019-03-22T20:14:44.245Z,99041.56
2019-03-22T20:17:14.419Z,99039.66
2019-03-22T20:19:44.336Z,99044.33
2019-03-22T20:22:14.290Z,99045.14
2019-03-22T20:24:44.387Z,99036.44
2019-03-22T20:27:14.383Z,99035.66
2019-03-22T20:29:44.505Z,99031.08
2019-03-22T20:32:14.710Z,99034.82
2019-03-22T20:34:44.713Z,99036.23
2019-03-22T20:37:14.858Z,99041.53
2019-03-22T20:39:44.898Z,99046.39
2019-03-22T20:42:14.945Z,99045.36
2019-03-22T20:44:44.991Z,99039.42
2019-03-22T20:47:15.183Z,99045.07
2019-03-22T20:49:45.233Z,99037.34
2019-03-22T20:52:15.452Z,99039.47
2019-03-22T20:54:45.525Z,99043.60
2019-03-22T20:57:15.584Z,99047.13
2019-03-22T20:59:45.581Z,99043.08
2019-03-22T21:02:15.616Z,99044.27
2019-03-22T21:04:45.647Z,99046.41
2019-03-22T21:07:15.694Z,99041.81
2019-03-22T21:09:45.919Z,99041.00
2019-03-22T21:12:17.140Z,99041.04
2019-03-22T21:14:47.231Z,99044.79
2019-03-22T21:17:17.201Z,99040.23
2019-03-22T21:19:47.382Z,99044.27
2019-03-22T21:22:17.350Z,99048.93
2019-03-22T21:24:47.837Z,99047.84
2019-03-22T21:27:17.900Z,99039.73
2019-03-22T21:29:47.993Z,99041.35
2019-03-22T21:32:18.032Z,99042.70
2019-03-22T21:34:48.211Z,99035.97
2019-03-22T21:37:18.320Z,99036.53
2019-03-22T21:39:48.423Z,99039.27
2019-03-22T21:42:18.714Z,99036.28
2019-03-22T21:44:48.622Z,99030.64
2019-03-22T21:47:18.624Z,99034.16
2019-03-22T21:49:48.581Z,99035.78
2019-03-22T21:52:18.482Z,99039.28
2019-03-22T21:54:49.916Z,99032.27
2019-03-22T21:57:19.924Z,99030.64
2019-03-22T21:59:50.041Z,99039.58
2019-03-22T22:02:20.080Z,99037.39
2019-03-22T22:04:50.040Z,99038.75
2019-03-22T22:07:19.972Z,99041.19
2019-03-22T22:09:49.983Z,99036.34
2019-03-22T22:12:20.010Z,99042.52
2019-03-22T22:14:50.071Z,99038.20
2019-03-22T22:17:20.173Z,99041.97
2019-03-22T22:19:50.138Z,99037.91
2019-03-22T22:22:20.235Z,99034.15
2019-03-22T22:24:50.222Z,99033.87
2019-03-22T22:27:20.283Z,99035.18
2019-03-22T22:29:50.346Z,99033.56
2019-03-22T22:32:20.306Z,99030.84
2019-03-22T22:34:50.313Z,99033.78
2019-03-22T22:37:20.409Z,99037.55
2019-03-22T22:39:50.358Z,99035.11
2019-03-22T22:42:20.273Z,99034.27
2019-03-22T22:44:50.400Z,99030.80
2019-03-22T22:47:20.683Z,99031.31
2019-03-22T22:49:50.763Z,99030.21
2019-03-22T22:52:20.866Z,99029.13
2019-03-22T22:54:50.777Z,99030.72
2019-03-22T22:57:20.806Z,99030.21
2019-03-22T22:59:50.780Z,99029.61
2019-03-22T23:02:20.834Z,99023.39
2019-03-22T23:04:50.732Z,99019.85
2019-03-22T23:07:20.654Z,99025.20
2019-03-22T23:09:50.692Z,99019.81
2019-03-22T23:12:20.766Z,99020.05
2019-03-22T23:14:50.682Z,99009.81
2019-03-22T23:17:20.794Z,99009.81
2019-03-22T23:19:51.037Z,99018.20
2019-03-22T23:22:21.064Z,99014.12
2019-03-22T23:24:51.163Z,99027.63
2019-03-22T23:27:21.216Z,99029.47
2019-03-22T23:29:51.133Z,99029.47
2019-03-22T23:32:21.419Z,99031.42
2019-03-22T23:34:59.038Z,99031.42
2019-03-22T23:37:23.395Z,99026.55
2019-03-22T23:39:53.303Z,99027.27
2019-03-22T23:42:23.226Z,99033.15
2019-03-22T23:44:53.192Z,99033.15
2019-03-22T23:47:23.085Z,99036.88
2019-03-22T23:49:53.003Z,99033.70
2019-03-22T23:52:23.296Z,99036.11
2019-03-22T23:54:53.363Z,99036.11
2019-03-22T23:57:23.268Z,99032.13
2019-03-22T23:59:53.483Z,99029.12
